Strona główna
METAR-TAF:

METAR-TAF

Lotnisko :

Lonesome Pine Airport

Wise, Wirginia, Stany Zjednoczone

Szerokość geograficzna: 36-59N, Długość geograficzna: 082-32W, wysokość: 817 m

Aktualna obserwacja pogody

Raport powstał 16 minut temu, godzina 05:35 UTC
Wiatr 3 kt od południowo-południowy zachód
Temperatura 0°C
Wilgotność 43%
Ciśnienie 1018 hPa
Widzialność: 16.1 km
bezchmurnie

METAR: KLNP 030535Z AUTO 20003KT 10SM CLR 00/M11 A3006 RMK AO2

czas: 00:51 (05:51 UTC)


TAF: brakujący

Obserwacja i prognoza pogody dla ponad 4000 lotnisk (raport METAR i TAF).

Dostępne stacje oznaczono żółtymi i czerwonymi punktami na mapie.

Najedź kursorem aby zobaczyć nazwę stacji.

Kliknij aby zobaczyć obserwacje i prognozy pogody.

Aby zmienić mapę: kliknij na zielony przycisk z czarnym krzyżykiem, aby powiększyć; na zielony przycisk z myślnikiem, aby pomniejszyć; na zielone strzałki, aby przejść do map sąsiednich.


METAR-TAF: